Time;durP1;ratioP1;P1;durP2;ratioP2;P2;SDS_P1;SDS_P2;PMS_P1;PMS_P2;Temp;Humidity;BMP_temperature;BMP_pressure;BME280_temperature;BME280_humidity;BME280_pressure;Samples;Min_cycle;Max_cycle;Signal;HPM_P1;HPM_P2
2022/07/25 00:00:31;;;;;;;0.10;0.10;;;24.70;99.90;26.80;101013.00;;;;5100908;28;20255;-61
2022/07/25 00:03:18;;;;;;;0.20;0.20;;;24.50;99.90;27.10;101023.00;;;;5098175;28;20252;-62
2022/07/25 00:06:09;;;;;;;0.10;0.10;;;24.70;99.90;27.50;101016.00;;;;5114963;28;20256;-62
2022/07/25 00:08:55;;;;;;;0.10;0.10;;;24.80;99.90;27.30;101016.00;;;;5083475;28;20623;-62
2022/07/25 00:11:50;;;;;;;0.20;0.20;;;24.80;99.90;27.50;101009.00;;;;5115209;28;20230;-62
2022/07/25 00:15:27;;;;;;;0.20;0.20;;;24.70;99.90;27.30;101006.00;;;;5116594;28;20182;-61
2022/07/25 00:22:19;;;;;;;0.20;0.20;;;24.50;99.90;26.40;100975.00;;;;4917639;29;20304;-62
2022/07/25 00:24:52;;;;;;;0.20;0.20;;;24.10;99.90;26.90;100992.00;;;;4908175;29;20229;-62
2022/07/25 00:27:25;;;;;;;0.30;0.30;;;24.10;99.90;26.30;100975.00;;;;4955300;29;20354;-62
2022/07/25 00:30:00;;;;;;;0.20;0.20;;;24.00;99.90;27.00;100986.00;;;;4955044;29;20222;-62
2022/07/25 00:32:46;;;;;;;0.20;0.20;;;24.20;99.90;26.50;100974.00;;;;4954788;29;20301;-62
2022/07/25 00:36:42;;;;;;;0.20;0.20;;;24.20;99.90;26.50;100964.00;;;;4954708;29;20252;-61
2022/07/25 00:43:29;;;;;;;0.30;0.30;;;24.00;99.90;27.00;100973.00;;;;4878963;29;20230;-62
2022/07/25 00:46:25;;;;;;;0.30;0.30;;;24.10;99.90;26.60;100969.00;;;;4875959;29;20288;-62
2022/07/25 00:49:08;;;;;;;0.30;0.30;;;24.20;99.90;26.50;100946.00;;;;4875871;29;20232;-62
2022/07/25 00:51:53;;;;;;;0.30;0.30;;;23.90;99.90;26.40;100949.00;;;;4875732;29;20652;-62
2022/07/25 00:54:42;;;;;;;0.30;0.30;;;23.90;99.90;26.10;100936.00;;;;4875192;29;20204;-61
2022/07/25 00:57:30;;;;;;;0.30;0.30;;;23.60;99.90;26.30;100910.00;;;;4938920;28;20207;-61
2022/07/25 00:59:56;;;;;;;0.40;0.40;;;23.70;99.90;26.60;100938.00;;;;4973773;28;20179;-62
2022/07/25 01:02:25;;;;;;;0.30;0.30;;;23.80;99.90;26.40;100929.00;;;;4973295;28;20676;-62
2022/07/25 01:05:10;;;;;;;0.30;0.30;;;23.80;99.90;26.10;100921.00;;;;4941167;28;20188;-61
2022/07/25 01:07:59;;;;;;;0.30;0.30;;;23.70;99.90;25.10;100898.00;;;;4957267;28;20201;-62
2022/07/25 01:10:46;;;;;;;0.30;0.30;;;23.20;99.90;25.40;100900.00;;;;4973488;28;20319;-61
2022/07/25 01:13:33;;;;;;;0.30;0.30;;;22.90;99.90;25.60;100905.00;;;;5015922;28;20297;-61
2022/07/25 01:16:19;;;;;;;0.32;0.32;;;23.10;99.90;26.10;100906.00;;;;5086974;28;20526;-62
2022/07/25 01:19:03;;;;;;;0.38;0.38;;;23.20;99.90;26.20;100905.00;;;;5096742;28;20180;-62
2022/07/25 01:21:55;;;;;;;0.40;0.40;;;23.50;99.90;25.90;100895.00;;;;5113465;28;20191;-62
2022/07/25 01:24:56;;;;;;;0.30;0.30;;;23.30;99.90;25.80;100892.00;;;;5113337;28;20304;-61
2022/07/25 01:27:30;;;;;;;0.30;0.30;;;23.40;99.90;25.70;100895.00;;;;5096373;28;20175;-61
2022/07/25 01:29:59;;;;;;;0.40;0.40;;;23.20;99.90;26.00;100875.00;;;;5096512;28;20172;-62
2022/07/25 01:32:43;;;;;;;0.40;0.40;;;23.20;99.90;26.30;100894.00;;;;5079404;28;20216;-62
2022/07/25 01:36:02;;;;;;;0.38;0.38;;;23.60;99.90;26.30;100892.00;;;;5113625;28;20237;-61
2022/07/25 01:39:05;;;;;;;0.30;0.30;;;23.70;99.90;25.70;100877.00;;;;5081857;28;20216;-61
2022/07/25 01:41:42;;;;;;;0.40;0.40;;;23.40;99.90;25.70;100876.00;;;;5115128;28;20535;-61
2022/07/25 01:44:27;;;;;;;0.40;0.40;;;23.20;99.90;25.50;100856.00;;;;5113904;28;20168;-62
2022/07/25 01:47:37;;;;;;;0.40;0.40;;;23.10;99.90;25.90;100874.00;;;;5096024;28;20179;-62
2022/07/25 01:50:25;;;;;;;0.30;0.30;;;23.30;99.90;25.50;100845.00;;;;5095635;28;20253;-62
2022/07/25 01:54:15;;;;;;;0.30;0.30;;;23.20;99.90;25.90;100867.00;;;;5113141;28;20574;-62
2022/07/25 01:57:43;;;;;;;0.30;0.30;;;23.20;99.90;25.80;100863.00;;;;5085957;28;20608;-61
2022/07/25 02:00:18;;;;;;;0.60;0.60;;;23.30;99.90;25.50;100845.00;;;;5068988;28;20195;-61
2022/07/25 02:06:07;;;;;;;0.30;0.30;;;23.00;99.90;24.20;100807.00;;;;5112943;28;20546;-61
2022/07/25 02:08:55;;;;;;;0.30;0.30;;;22.70;99.90;24.50;100808.00;;;;5096457;28;20190;-61
2022/07/25 02:11:33;;;;;;;0.35;0.35;;;22.60;99.90;24.50;100807.00;;;;5095759;28;20651;-61
2022/07/25 02:14:41;;;;;;;0.30;0.30;;;22.80;99.90;24.80;100804.00;;;;5112753;28;20168;-61
2022/07/25 02:17:20;;;;;;;0.30;0.30;;;22.90;99.90;24.20;100793.00;;;;5080965;28;20187;-62
2022/07/25 02:20:15;;;;;;;0.30;0.30;;;22.70;99.90;24.60;100782.00;;;;5113230;28;20236;-61
2022/07/25 02:23:03;;;;;;;0.30;0.30;;;22.80;99.90;24.40;100790.00;;;;5080790;28;20717;-61
2022/07/25 02:25:51;;;;;;;0.30;0.30;;;22.70;99.90;24.60;100791.00;;;;5095516;28;20638;-61
2022/07/25 02:28:31;;;;;;;0.30;0.30;;;22.80;99.90;24.70;100783.00;;;;5081211;28;20187;-61
2022/07/25 02:31:15;;;;;;;0.20;0.20;;;22.90;99.90;24.50;100755.00;;;;5095796;28;20638;-61
2022/07/25 02:34:00;;;;;;;0.90;0.90;;;22.90;99.90;24.20;100760.00;;;;5095295;28;20642;-61
2022/07/25 02:36:44;;;;;;;0.30;0.30;;;22.60;99.90;24.20;100773.00;;;;5112432;28;20225;-62
2022/07/25 02:39:28;;;;;;;0.30;0.30;;;22.50;99.90;24.20;100760.00;;;;5112561;28;20611;-61
2022/07/25 02:42:20;;;;;;;0.30;0.30;;;22.50;99.90;24.40;100787.00;;;;5095412;28;20195;-61
2022/07/25 02:45:07;;;;;;;1.00;1.00;;;22.70;99.90;23.80;100783.00;;;;5112639;28;20192;-61
2022/07/25 02:47:54;;;;;;;1.48;1.38;;;22.50;99.90;24.30;100798.00;;;;5095321;28;20184;-61
2022/07/25 02:54:53;;;;;;;0.73;0.73;;;22.60;99.90;24.80;100820.00;;;;5067509;28;20253;-61
2022/07/25 02:57:36;;;;;;;0.52;0.52;;;22.90;99.90;23.80;100827.00;;;;5095769;28;20180;-61
2022/07/25 03:00:10;;;;;;;0.35;0.35;;;22.70;99.90;23.30;100827.00;;;;5095563;28;20172;-60
2022/07/25 03:02:54;;;;;;;0.77;0.77;;;22.40;99.90;23.80;100810.00;;;;5095335;28;20180;-60
2022/07/25 03:05:41;;;;;;;1.85;0.55;;;22.50;99.90;24.50;100856.00;;;;5095608;28;20186;-61
2022/07/25 03:08:28;;;;;;;1.10;1.10;;;22.50;99.90;24.10;100835.00;;;;5096037;28;20203;-60
2022/07/25 03:19:42;;;;;;;0.40;0.40;;;22.30;99.90;24.10;100854.00;;;;5070146;28;20238;-61
2022/07/25 03:38:59;;;;;;;1.13;0.73;;;22.10;99.90;23.50;100833.00;;;;4955446;29;20209;-61
2022/07/25 03:42:22;;;;;;;1.50;1.40;;;21.90;99.90;23.10;100826.00;;;;4901934;29;20217;-61
2022/07/25 03:46:02;;;;;;;0.30;0.30;;;21.70;99.90;23.50;100828.00;;;;4949041;28;20203;-61
2022/07/25 03:56:38;;;;;;;0.75;0.75;;;21.70;99.90;22.90;100792.00;;;;4967986;28;20236;-61
2022/07/25 04:00:08;;;;;;;1.60;1.42;;;21.50;99.90;23.10;100812.00;;;;4959514;28;20220;-61
2022/07/25 04:02:58;;;;;;;1.55;1.02;;;21.50;99.90;23.00;100831.00;;;;4902063;29;20246;-60
2022/07/25 04:05:48;;;;;;;1.13;1.13;;;21.50;99.90;23.10;100834.00;;;;4920267;29;20273;-60
2022/07/25 04:08:34;;;;;;;4.35;1.77;;;21.40;99.90;23.50;100807.00;;;;4902934;29;20231;-61
2022/07/25 04:11:46;;;;;;;1.02;0.93;;;21.60;99.90;23.20;100832.00;;;;4901591;29;20212;-61
2022/07/25 04:14:22;;;;;;;1.67;1.55;;;21.40;99.90;22.80;100823.00;;;;4905032;29;20266;-61
2022/07/25 04:17:08;;;;;;;4.22;1.58;;;21.40;99.90;23.50;100837.00;;;;4901556;29;20250;-61
2022/07/25 04:19:46;;;;;;;0.70;0.70;;;21.50;99.90;23.00;100833.00;;;;4903087;29;20205;-61
2022/07/25 04:22:36;;;;;;;0.35;0.35;;;21.40;99.90;23.50;100851.00;;;;4901362;29;20253;-61
2022/07/25 04:25:50;;;;;;;;;;;;;;;;;;;;;
2022/07/25 04:28:42;;;;;;;0.40;0.40;;;21.60;99.90;23.30;100833.00;;;;4992647;28;20595;-61
2022/07/25 04:31:23;;;;;;;2.63;2.40;;;21.50;99.90;23.50;100849.00;;;;4972407;28;20338;-61
2022/07/25 04:34:07;;;;;;;0.20;0.20;;;21.60;99.90;24.20;100858.00;;;;5027539;28;20206;-62
2022/07/25 04:36:56;;;;;;;0.30;0.30;;;21.80;99.90;24.50;100825.00;;;;5077621;28;20196;-61
2022/07/25 04:39:31;;;;;;;0.30;0.30;;;22.10;99.90;24.80;100851.00;;;;5060687;28;20552;-61
2022/07/25 04:42:06;;;;;;;0.73;0.73;;;22.30;99.90;24.30;100853.00;;;;5082441;28;20202;-61
2022/07/25 04:44:53;;;;;;;0.40;0.40;;;22.20;99.90;23.70;100833.00;;;;5097030;28;20626;-61
2022/07/25 04:47:37;;;;;;;0.30;0.30;;;21.90;99.90;23.90;100838.00;;;;5095375;28;20184;-61
2022/07/25 04:50:25;;;;;;;0.30;0.30;;;22.00;99.90;24.50;100846.00;;;;5098101;28;20522;-61
2022/07/25 04:53:10;;;;;;;0.50;0.50;;;22.10;99.90;24.30;100821.00;;;;5097557;28;20215;-60
2022/07/25 04:55:57;;;;;;;0.20;0.20;;;22.20;99.90;23.80;100828.00;;;;5080310;28;20562;-60
2022/07/25 04:58:46;;;;;;;0.60;0.60;;;22.00;99.90;23.40;100817.00;;;;5097371;28;20585;-61
2022/07/25 05:01:35;;;;;;;0.20;0.20;;;21.70;99.90;23.20;100814.00;;;;5097066;28;20278;-61
2022/07/25 05:04:11;;;;;;;0.73;0.73;;;21.70;99.90;22.30;100805.00;;;;5097199;28;20187;-61
2022/07/25 05:07:03;;;;;;;0.30;0.30;;;21.50;99.90;22.40;100796.00;;;;5097095;28;20681;-61
2022/07/25 05:09:39;;;;;;;0.70;0.70;;;21.30;99.90;22.30;100763.00;;;;5082339;28;20186;-61
2022/07/25 05:12:29;;;;;;;0.63;0.63;;;21.30;99.90;22.30;100796.00;;;;5096678;28;20307;-61
2022/07/25 05:15:19;;;;;;;0.20;0.20;;;21.30;99.90;21.80;100788.00;;;;5096821;28;20190;-61
2022/07/25 05:18:18;;;;;;;5.35;1.67;;;21.00;99.90;21.40;100791.00;;;;5083107;28;20179;-61
2022/07/25 05:24:18;;;;;;;1.73;1.63;;;20.60;99.90;21.50;100780.00;;;;4996796;28;20306;-61
2022/07/25 05:27:21;;;;;;;0.20;0.20;;;20.70;99.90;22.10;100785.00;;;;4976714;28;20202;-61
2022/07/25 05:30:07;;;;;;;1.17;0.77;;;20.90;99.90;21.80;100779.00;;;;5088734;28;20200;-60
2022/07/25 05:32:50;;;;;;;0.50;0.50;;;21.00;99.90;22.20;100774.00;;;;5094625;28;20191;-60
2022/07/25 05:35:22;;;;;;;0.60;0.60;;;21.20;99.90;22.10;100790.00;;;;5094141;28;20191;-60
2022/07/25 05:38:09;;;;;;;1.27;1.15;;;21.20;99.90;21.70;100754.00;;;;5098664;28;20242;-60
2022/07/25 05:40:53;;;;;;;1.05;1.05;;;20.90;99.90;22.40;100781.00;;;;5087422;28;20195;-60
2022/07/25 05:44:03;;;;;;;1.20;1.05;;;21.20;99.90;21.50;100751.00;;;;5112876;28;20187;-60
2022/07/25 05:46:34;;;;;;;0.30;0.30;;;20.90;99.90;21.70;100754.00;;;;5095816;28;20209;-60
2022/07/25 05:49:38;;;;;;;0.30;0.30;;;20.90;99.90;22.20;100785.00;;;;5113363;28;20169;-60
2022/07/25 05:52:22;;;;;;;1.75;1.65;;;21.00;99.90;22.40;100789.00;;;;5113304;28;20211;-60
2022/07/25 05:55:08;;;;;;;2.75;2.55;;;21.30;99.90;22.00;100785.00;;;;5114334;28;20252;-60
2022/07/25 05:57:52;;;;;;;21.90;2.60;;;21.20;99.90;21.70;100789.00;;;;5087450;28;20195;-60
2022/07/25 06:00:49;;;;;;;0.40;0.40;;;21.00;99.90;22.70;100801.00;;;;5113985;28;20267;-60
2022/07/25 06:03:53;;;;;;;1.15;1.05;;;21.30;99.90;22.00;100797.00;;;;5113108;28;20180;-60
2022/07/25 06:07:17;;;;;;;2.92;0.70;;;21.20;99.90;22.70;100797.00;;;;5114030;28;20633;-60
2022/07/25 06:10:13;;;;;;;1.83;1.70;;;21.30;99.90;22.50;100807.00;;;;5112979;28;20187;-60
2022/07/25 06:13:16;;;;;;;0.55;0.55;;;21.50;99.90;21.70;100800.00;;;;5113832;28;20208;-60
2022/07/25 06:16:18;;;;;;;1.67;1.58;;;21.30;99.90;22.00;100791.00;;;;5114354;28;20186;-60
2022/07/25 06:19:21;;;;;;;1.48;1.38;;;21.10;99.90;21.90;100794.00;;;;5113284;28;20531;-60
2022/07/25 06:22:28;;;;;;;0.20;0.20;;;21.10;99.90;22.00;100797.00;;;;5113834;28;20176;-60
2022/07/25 06:25:19;;;;;;;1.58;1.48;;;21.20;99.90;21.50;100797.00;;;;5085570;28;20514;-60
2022/07/25 06:28:41;;;;;;;1.17;1.15;;;21.00;99.90;21.50;100797.00;;;;5113239;28;20195;-60
2022/07/25 06:31:47;;;;;;;0.95;0.77;;;20.70;99.90;21.60;100797.00;;;;5114234;28;20263;-60
2022/07/25 06:34:48;;;;;;;2.42;1.88;;;20.80;99.90;21.90;100801.00;;;;5095874;28;20195;-60
2022/07/25 06:37:57;;;;;;;1.40;1.00;;;21.10;99.90;21.70;100764.00;;;;5113679;28;20217;-60
2022/07/25 06:41:05;;;;;;;0.93;0.93;;;21.10;99.90;22.50;100796.00;;;;5113530;28;20168;-61
2022/07/25 06:44:13;;;;;;;0.22;0.22;;;21.50;99.90;24.30;100789.00;;;;5092094;28;20184;-61
2022/07/25 06:47:14;;;;;;;3.35;1.45;;;22.50;99.90;24.00;100809.00;;;;5093121;28;20568;-61
2022/07/25 06:50:01;;;;;;;3.47;2.15;;;23.90;99.90;23.40;100794.00;;;;5092092;28;20192;-60
2022/07/25 06:52:53;;;;;;;6.78;3.60;;;23.00;99.90;24.40;100793.00;;;;5074147;28;20209;-60
2022/07/25 06:55:19;;;;;;;0.47;0.47;;;23.00;99.90;26.50;100844.00;;;;5097495;28;20180;-61
2022/07/25 06:57:48;;;;;;;0.10;0.10;;;24.60;99.90;25.60;100817.00;;;;5096620;28;20195;-61
2022/07/25 07:00:51;;;;;;;1.40;1.20;;;24.30;99.90;25.20;100829.00;;;;5097196;28;20291;-60
2022/07/25 07:03:37;;;;;;;1.08;1.05;;;24.20;99.90;23.00;100758.00;;;;5097208;28;20211;-60
2022/07/25 07:06:44;;;;;;;1.45;1.35;;;23.20;99.90;22.60;100796.00;;;;5096006;28;20181;-60
2022/07/25 07:09:57;;;;;;;0.40;0.40;;;22.30;99.90;23.80;100816.00;;;;5095996;28;20226;-60
2022/07/25 07:12:41;;;;;;;3.55;1.83;;;22.60;99.90;23.70;100813.00;;;;5084266;28;20212;-60
2022/07/25 07:15:27;;;;;;;0.60;0.60;;;22.90;99.90;23.20;100815.00;;;;5079021;28;20637;-62
2022/07/25 07:18:02;;;;;;;1.85;1.38;;;22.70;99.90;23.00;100807.00;;;;5081640;28;20180;-60
2022/07/25 07:21:13;;;;;;;0.13;0.13;;;22.60;99.90;24.90;100824.00;;;;5094719;28;20200;-61
2022/07/25 07:24:03;;;;;;;2.53;1.83;;;23.20;99.90;24.80;100822.00;;;;5111580;28;20184;-61
2022/07/25 07:27:22;;;;;;;0.20;0.20;;;24.20;99.90;26.20;100851.00;;;;5078789;28;20184;-61
2022/07/25 07:29:54;;;;;;;0.60;0.40;;;24.60;99.90;26.50;100893.00;;;;5081036;28;20245;-61
2022/07/25 07:32:44;;;;;;;1.38;0.73;;;25.60;99.90;27.80;100902.00;;;;5094567;28;20205;-61
2022/07/25 07:35:45;;;;;;;5.72;1.38;;;26.00;99.90;25.70;100889.00;;;;5087280;28;20808;-61
2022/07/25 07:38:31;;;;;;;1.55;1.45;;;25.80;99.90;25.60;100863.00;;;;5094957;28;20177;-60
2022/07/25 07:41:18;;;;;;;3.50;2.22;;;24.70;99.90;25.00;100835.00;;;;5096519;28;20168;-60
2022/07/25 07:44:28;;;;;;;0.50;0.50;;;24.30;99.90;25.80;100873.00;;;;5096474;28;20173;-61
2022/07/25 07:47:31;;;;;;;1.95;1.13;;;25.00;99.90;24.70;100818.00;;;;5095012;28;20180;-60
2022/07/25 07:50:19;;;;;;;1.30;1.20;;;24.40;99.90;24.20;100802.00;;;;5094294;28;20222;-60
2022/07/25 07:53:06;;;;;;;4.30;3.08;;;24.00;99.90;24.80;100838.00;;;;5094757;28;20207;-60
2022/07/25 07:56:27;;;;;;;2.45;1.70;;;24.10;99.90;25.90;100822.00;;;;5094893;28;20161;-60
2022/07/25 07:59:54;;;;;;;0.10;0.10;;;24.50;99.90;28.40;100902.00;;;;5096863;28;20525;-60
2022/07/25 08:02:47;;;;;;;0.20;0.20;;;26.30;99.90;28.10;100918.00;;;;5094881;28;20180;-60
2022/07/25 08:05:50;;;;;;;1.13;1.00;;;26.80;99.90;27.20;100909.00;;;;5094204;28;20188;-60
2022/07/25 08:08:56;;;;;;;0.35;0.35;;;26.20;99.90;25.60;100845.00;;;;5096153;28;20183;-60
2022/07/25 08:12:04;;;;;;;2.67;1.27;;;24.50;99.90;24.80;100849.00;;;;5094809;28;20319;-60
2022/07/25 08:15:30;;;;;;;0.45;0.45;;;24.70;99.90;26.00;100860.00;;;;5095943;28;20285;-59
2022/07/25 08:18:36;;;;;;;0.80;0.80;;;24.60;99.90;26.20;100882.00;;;;5114027;28;20531;-59
2022/07/25 08:21:22;;;;;;;1.05;1.05;;;25.00;99.90;23.60;100828.00;;;;5115176;28;20212;-60
2022/07/25 08:24:08;;;;;;;0.60;0.55;;;23.90;99.90;24.40;100866.00;;;;5080887;28;20558;-60
2022/07/25 08:27:10;;;;;;;0.95;0.75;;;24.00;99.90;25.20;100870.00;;;;5114740;28;20203;-60
2022/07/25 08:30:13;;;;;;;1.02;1.02;;;24.30;99.90;25.10;100869.00;;;;5093739;28;20200;-60
2022/07/25 08:33:01;;;;;;;1.25;0.75;;;24.50;99.90;25.40;100864.00;;;;5113889;28;20234;-60
2022/07/25 08:36:10;;;;;;;1.00;1.00;;;24.60;99.90;26.60;100904.00;;;;5095491;28;20520;-60
2022/07/25 08:38:56;;;;;;;0.40;0.40;;;25.40;99.90;26.10;100887.00;;;;5095451;28;20184;-60
2022/07/25 08:41:40;;;;;;;0.55;0.52;;;25.20;99.90;28.10;100937.00;;;;5094174;28;20642;-60
2022/07/25 08:44:53;;;;;;;2.45;1.65;;;26.50;99.90;27.00;100940.00;;;;5098419;28;20180;-60
2022/07/25 08:51:11;;;;;;;0.88;0.50;;;26.10;99.90;25.50;100919.00;;;;5116013;28;20180;-60
2022/07/25 08:53:57;;;;;;;2.17;0.95;;;24.90;99.90;25.20;100917.00;;;;5106354;28;20214;-60
2022/07/25 08:57:07;;;;;;;1.42;1.27;;;24.60;99.90;24.40;100906.00;;;;5060238;28;20343;-60
2022/07/25 09:00:19;;;;;;;1.27;0.88;;;24.50;99.90;25.00;100906.00;;;;5093633;28;20528;-60
2022/07/25 09:03:05;;;;;;;0.65;0.65;;;24.20;99.90;24.40;100904.00;;;;5095762;28;20278;-60
2022/07/25 09:06:31;;;;;;;0.40;0.40;;;24.00;99.90;25.20;100914.00;;;;5093918;28;20220;-60
2022/07/25 09:09:35;;;;;;;0.52;0.52;;;24.40;99.90;26.00;100928.00;;;;5109284;28;20628;-60
2022/07/25 09:12:39;;;;;;;0.43;0.43;;;25.10;99.90;27.60;100961.00;;;;5114085;28;20678;-61
2022/07/25 09:15:47;;;;;;;1.55;1.45;;;25.70;99.90;26.60;100948.00;;;;5113764;28;20185;-61
2022/07/25 09:18:32;;;;;;;0.60;0.60;;;25.40;99.90;25.40;100926.00;;;;5114902;28;20526;-60
2022/07/25 09:21:18;;;;;;;2.92;1.08;;;24.60;99.90;25.40;100932.00;;;;5113859;28;20171;-60
2022/07/25 09:24:16;;;;;;;2.13;1.17;;;24.50;99.90;25.40;100930.00;;;;5113978;28;20180;-62
2022/07/25 09:28:10;;;;;;;0.60;0.60;;;24.50;99.90;25.60;100935.00;;;;5084038;28;20655;-61
2022/07/25 09:30:59;;;;;;;1.60;0.88;;;24.70;99.90;26.00;100961.00;;;;5015727;28;20199;-61
2022/07/25 09:33:28;;;;;;;1.42;0.88;;;25.10;99.90;26.40;100983.00;;;;5015000;28;20214;-61
2022/07/25 09:36:15;;;;;;;2.58;1.48;;;25.30;99.90;26.30;100962.00;;;;5090484;28;20236;-61
2022/07/25 09:39:06;;;;;;;4.10;1.48;;;25.20;99.90;25.10;100987.00;;;;5075834;28;20184;-61
2022/07/25 09:41:55;;;;;;;2.80;1.00;;;24.50;99.90;24.60;100959.00;;;;5093746;28;20648;-61
2022/07/25 09:44:59;;;;;;;3.78;1.05;;;24.20;99.90;25.40;100948.00;;;;5092587;28;20193;-61
2022/07/25 09:47:33;;;;;;;6.55;1.65;;;24.20;99.90;26.40;100981.00;;;;5092511;28;20181;-61
2022/07/25 09:50:22;;;;;;;0.60;0.60;;;24.90;99.90;25.80;100944.00;;;;5092660;28;20514;-62
2022/07/25 09:53:08;;;;;;;0.75;0.52;;;24.90;99.90;25.00;100954.00;;;;5075803;28;20269;-62
2022/07/25 09:56:16;;;;;;;0.55;0.55;;;24.20;99.90;24.90;100973.00;;;;5092348;28;20594;-61
2022/07/25 09:59:16;;;;;;;2.55;1.95;;;24.20;99.90;24.60;100963.00;;;;5060100;28;20181;-62
2022/07/25 10:02:22;;;;;;;3.97;1.25;;;23.80;99.90;24.60;100953.00;;;;5074525;28;20177;-62
2022/07/25 10:05:49;;;;;;;0.20;0.20;;;23.80;99.90;25.00;100961.00;;;;5062955;28;20205;-62
2022/07/25 10:08:39;;;;;;;1.08;0.65;;;23.70;99.90;24.30;100953.00;;;;5087059;28;20191;-62
2022/07/25 10:11:26;;;;;;;1.38;0.77;;;23.70;99.90;24.70;100958.00;;;;5092070;28;20184;-62
2022/07/25 10:14:12;;;;;;;1.90;0.55;;;23.70;99.90;24.40;100955.00;;;;5103690;28;20261;-62
2022/07/25 10:17:29;;;;;;;6.53;1.10;;;23.60;99.90;24.30;100953.00;;;;5103643;28;20203;-62
2022/07/25 10:20:29;;;;;;;0.80;0.52;;;23.60;99.90;24.70;100970.00;;;;4999581;28;20281;-62
2022/07/25 10:33:40;;;;;;;3.17;1.38;;;23.00;99.90;24.10;100961.00;;;;5128258;27;1297561;-62
2022/07/25 10:36:41;;;;;;;0.70;0.52;;;23.30;99.90;24.40;100969.00;;;;5130138;28;20197;-62
2022/07/25 10:39:37;;;;;;;2.53;1.08;;;23.50;99.90;24.00;100973.00;;;;5130575;28;20224;-63
2022/07/25 10:42:05;;;;;;;1.13;0.82;;;23.40;99.90;24.00;100980.00;;;;5115766;28;20191;-63
2022/07/25 10:44:52;;;;;;;3.95;0.60;;;23.20;99.90;23.30;100964.00;;;;5102836;27;20714;-62
2022/07/25 10:47:23;;;;;;;1.30;0.47;;;22.90;99.90;23.80;100976.00;;;;5134205;27;20187;-62
2022/07/25 10:50:10;;;;;;;2.63;1.08;;;23.00;99.90;24.00;100979.00;;;;5112602;28;20180;-64
2022/07/25 10:53:06;;;;;;;0.55;0.52;;;23.00;99.90;24.10;100989.00;;;;5112876;28;20595;-62
2022/07/25 10:56:05;;;;;;;1.77;0.95;;;23.10;99.90;24.50;100998.00;;;;5121737;28;20187;-62
2022/07/25 10:58:59;;;;;;;0.10;0.10;;;23.30;99.90;24.10;100977.00;;;;5112426;28;20171;-62
2022/07/25 11:02:18;;;;;;;0.75;0.68;;;23.10;99.90;24.50;100964.00;;;;5112717;28;20219;-62
2022/07/25 11:05:05;;;;;;;0.57;0.47;;;23.50;99.90;24.90;100994.00;;;;5113328;28;20195;-62
2022/07/25 11:07:55;;;;;;;0.57;0.57;;;23.60;99.90;25.70;100992.00;;;;5129885;28;20184;-62
2022/07/25 11:10:50;;;;;;;0.73;0.73;;;24.30;99.90;24.30;100994.00;;;;5128628;28;20199;-62
2022/07/25 11:13:39;;;;;;;4.40;2.03;;;23.70;99.90;24.90;101002.00;;;;5114386;28;20193;-62
2022/07/25 11:16:46;;;;;;;0.47;0.47;;;23.80;99.90;25.70;101021.00;;;;5133774;27;20183;-62
2022/07/25 11:20:07;;;;;;;0.68;0.57;;;24.30;99.90;26.60;101004.00;;;;5112091;28;20552;-62
2022/07/25 11:23:04;;;;;;;0.60;0.60;;;25.10;99.90;24.80;101017.00;;;;5124106;27;20257;-62
2022/07/25 11:25:35;;;;;;;0.55;0.55;;;24.40;99.90;25.50;101010.00;;;;5124511;28;20202;-62
2022/07/25 11:28:16;;;;;;;0.50;0.50;;;24.40;99.90;26.60;101024.00;;;;5129015;28;20215;-63
2022/07/25 11:31:07;;;;;;;0.80;0.77;;;25.00;99.90;26.30;101035.00;;;;5112291;28;20185;-63
2022/07/25 11:34:03;;;;;;;1.40;1.30;;;25.40;99.90;24.70;101007.00;;;;5098623;28;20202;-62
2022/07/25 11:36:54;;;;;;;0.20;0.20;;;24.50;99.90;26.00;101030.00;;;;5126977;28;20661;-62
2022/07/25 11:40:19;;;;;;;2.58;0.88;;;24.50;99.90;25.50;101047.00;;;;5097277;28;20267;-62
2022/07/25 11:42:51;;;;;;;3.60;1.23;;;24.60;99.90;24.40;100994.00;;;;5125485;28;20195;-62
2022/07/25 11:48:50;;;;;;;2.22;1.10;;;23.40;99.90;24.70;101016.00;;;;5106077;28;20251;-62
2022/07/25 11:51:40;;;;;;;0.45;0.43;;;23.70;99.90;24.70;101029.00;;;;5112424;27;20216;-62
2022/07/25 11:54:15;;;;;;;2.42;1.08;;;23.70;99.90;25.20;101036.00;;;;5098212;28;20270;-62
2022/07/25 11:57:15;;;;;;;3.15;0.63;;;23.90;99.90;25.40;101051.00;;;;5097826;28;20245;-62
2022/07/25 12:00:25;;;;;;;0.80;0.80;;;24.20;99.90;24.50;101038.00;;;;5115295;28;20188;-61
2022/07/25 12:03:13;;;;;;;0.65;0.65;;;23.90;99.90;25.70;101042.00;;;;5115060;28;20179;-62
2022/07/25 12:06:23;;;;;;;1.65;1.48;;;24.20;99.90;25.90;101054.00;;;;5098029;28;20180;-67
2022/07/25 12:09:16;;;;;;;0.35;0.35;;;25.00;99.90;25.70;101047.00;;;;5114742;28;20268;-61
2022/07/25 12:12:05;;;;;;;0.43;0.43;;;24.80;99.90;26.70;101057.00;;;;5100478;28;20200;-62
2022/07/25 12:14:52;;;;;;;0.10;0.10;;;25.30;99.90;26.70;101063.00;;;;5082702;28;20543;-62
2022/07/25 12:17:37;;;;;;;1.40;0.63;;;25.30;99.90;26.00;101041.00;;;;5097564;28;20527;-61
2022/07/25 12:20:22;;;;;;;0.88;0.63;;;25.30;99.90;25.70;101070.00;;;;5114668;28;20258;-61
2022/07/25 12:23:14;;;;;;;9.07;0.73;;;25.00;99.90;26.20;101070.00;;;;5097396;28;20184;-63
2022/07/25 12:25:58;;;;;;;1.75;1.55;;;24.90;99.90;25.20;101068.00;;;;5097194;28;20704;-61
2022/07/25 12:28:45;;;;;;;0.50;0.50;;;24.50;99.90;25.40;101080.00;;;;5107925;27;20679;-61
2022/07/25 12:31:20;;;;;;;1.83;0.60;;;24.40;99.90;25.20;101076.00;;;;5117422;27;20211;-61
2022/07/25 12:34:15;;;;;;;0.20;0.20;;;24.40;99.90;25.90;101086.00;;;;5117690;27;20191;-60
2022/07/25 12:37:17;;;;;;;0.60;0.60;;;24.60;99.90;25.50;101075.00;;;;5110497;27;20209;-60
2022/07/25 12:40:04;;;;;;;2.08;1.00;;;24.60;99.90;25.70;101060.00;;;;5117361;27;20190;-60
2022/07/25 12:42:53;;;;;;;7.13;0.65;;;24.70;99.90;26.20;101088.00;;;;5097437;28;20184;-60
2022/07/25 12:45:38;;;;;;;3.50;1.25;;;24.90;99.90;26.00;101088.00;;;;5090103;27;20215;-62
2022/07/25 12:48:39;;;;;;;19.48;1.58;;;24.90;99.90;25.80;101083.00;;;;5112230;28;20184;-61
2022/07/25 12:51:28;;;;;;;3.72;0.63;;;24.60;99.90;26.50;101093.00;;;;5111538;28;20239;-60
2022/07/25 12:54:16;;;;;;;;;;;;;;;;;;;;;
2022/07/25 12:57:03;;;;;;;2.30;1.17;;;25.30;99.90;25.50;101093.00;;;;5120493;27;20204;-61
2022/07/25 13:00:19;;;;;;;0.70;0.63;;;25.00;99.90;26.40;101102.00;;;;5119835;27;20249;-60
2022/07/25 13:03:03;;;;;;;2.83;0.90;;;25.20;99.90;25.90;101112.00;;;;5122630;27;20545;-61
2022/07/25 13:06:04;;;;;;;3.42;0.40;;;25.10;99.90;26.00;101119.00;;;;5122886;27;20191;-61
2022/07/25 13:09:04;;;;;;;0.70;0.70;;;25.20;99.90;26.80;101104.00;;;;5121831;27;20282;-61
2022/07/25 13:12:12;;;;;;;1.95;0.70;;;25.60;99.90;26.00;101113.00;;;;5123687;27;20200;-61
2022/07/25 13:15:22;;;;;;;1.77;0.65;;;25.40;99.90;26.90;101117.00;;;;5122333;27;20337;-60
2022/07/25 13:18:25;;;;;;;1.33;0.50;;;25.40;99.90;26.50;101119.00;;;;5114483;27;20760;-62
2022/07/25 13:21:38;;;;;;;1.80;0.88;;;25.40;99.90;26.00;101127.00;;;;5122204;27;20212;-62
2022/07/25 13:24:45;;;;;;;3.17;1.30;;;25.20;99.90;26.20;101122.00;;;;5124039;27;20266;-62
2022/07/25 13:27:46;;;;;;;2.05;0.68;;;25.00;99.90;25.90;101093.00;;;;5124281;27;20192;-61
2022/07/25 13:30:47;;;;;;;1.75;0.30;;;25.00;99.90;26.20;101124.00;;;;5121747;27;20183;-62
2022/07/25 13:33:48;;;;;;;1.60;1.50;;;25.10;99.90;25.70;101126.00;;;;5123714;27;20543;-61
2022/07/25 13:36:49;;;;;;;2.15;0.50;;;24.90;99.90;25.70;101128.00;;;;5120211;27;20267;-62
2022/07/25 13:40:11;;;;;;;2.38;0.82;;;24.70;99.90;26.10;101138.00;;;;5118800;27;20184;-62
2022/07/25 13:43:01;;;;;;;0.98;0.65;;;25.00;99.90;26.50;101117.00;;;;5114304;27;20188;-62
2022/07/25 13:46:05;;;;;;;4.15;0.40;;;25.20;99.90;26.20;101136.00;;;;5121126;27;20211;-62
2022/07/25 13:49:16;;;;;;;0.43;0.43;;;25.20;99.90;26.60;101154.00;;;;5123818;27;20649;-62
2022/07/25 13:52:17;;;;;;;7.22;0.40;;;25.20;99.90;25.90;101147.00;;;;5121366;27;20242;-62
2022/07/25 13:55:19;;;;;;;2.42;0.77;;;25.10;99.90;26.00;101133.00;;;;5111650;27;20183;-62